sensor_id;sensor_type;location;lat;lon;timestamp;pressure;altitude;pressure_sealevel;temperature;humidity
29247;BME280;16272;48.188;9.964;2023-08-21T00:01:26;96304.44;;;20.78;79.10
29247;BME280;16272;48.188;9.964;2023-08-21T00:03:51;96295.28;;;20.92;77.89
29247;BME280;16272;48.188;9.964;2023-08-21T00:06:16;96297.97;;;20.85;78.22
29247;BME280;16272;48.188;9.964;2023-08-21T00:08:41;96298.59;;;20.81;78.87
29247;BME280;16272;48.188;9.964;2023-08-21T00:11:07;96302.34;;;20.80;79.78
29247;BME280;16272;48.188;9.964;2023-08-21T00:13:32;96299.03;;;20.78;78.80
29247;BME280;16272;48.188;9.964;2023-08-21T00:15:57;96299.84;;;20.78;78.17
29247;BME280;16272;48.188;9.964;2023-08-21T00:18:23;96299.84;;;20.71;78.35
29247;BME280;16272;48.188;9.964;2023-08-21T00:20:48;96291.03;;;20.63;78.84
29247;BME280;16272;48.188;9.964;2023-08-21T00:23:14;96294.63;;;20.63;79.02
29247;BME280;16272;48.188;9.964;2023-08-21T00:25:39;96289.22;;;20.63;78.41
29247;BME280;16272;48.188;9.964;2023-08-21T00:28:05;96296.84;;;20.53;78.25
29247;BME280;16272;48.188;9.964;2023-08-21T00:30:30;96288.06;;;20.37;79.23
29247;BME280;16272;48.188;9.964;2023-08-21T00:32:55;96290.91;;;20.29;79.74
29247;BME280;16272;48.188;9.964;2023-08-21T00:35:21;96289.31;;;20.42;79.41
29247;BME280;16272;48.188;9.964;2023-08-21T00:37:46;96288.94;;;20.45;79.16
29247;BME280;16272;48.188;9.964;2023-08-21T00:40:12;96292.03;;;20.42;79.78
29247;BME280;16272;48.188;9.964;2023-08-21T00:42:37;96287.22;;;20.37;80.09
29247;BME280;16272;48.188;9.964;2023-08-21T00:45:03;96293.03;;;20.41;80.71
29247;BME280;16272;48.188;9.964;2023-08-21T00:47:29;96288.69;;;20.39;80.34
29247;BME280;16272;48.188;9.964;2023-08-21T00:49:55;96293.88;;;20.48;78.29
29247;BME280;16272;48.188;9.964;2023-08-21T00:52:20;96293.44;;;20.37;78.32
29247;BME280;16272;48.188;9.964;2023-08-21T00:54:46;96287.63;;;20.34;78.52
29247;BME280;16272;48.188;9.964;2023-08-21T00:57:12;96291.94;;;20.28;80.19
29247;BME280;16272;48.188;9.964;2023-08-21T00:59:38;96284.72;;;20.35;79.41
29247;BME280;16272;48.188;9.964;2023-08-21T01:02:03;96293.00;;;20.27;80.13
29247;BME280;16272;48.188;9.964;2023-08-21T01:04:29;96295.41;;;20.09;81.15
29247;BME280;16272;48.188;9.964;2023-08-21T01:06:54;96289.69;;;20.25;79.66
29247;BME280;16272;48.188;9.964;2023-08-21T01:15:06;96292.94;;;20.14;80.76
29247;BME280;16272;48.188;9.964;2023-08-21T01:17:33;96302.09;;;20.26;78.78
29247;BME280;16272;48.188;9.964;2023-08-21T01:20:00;96301.97;;;19.99;80.49
29247;BME280;16272;48.188;9.964;2023-08-21T01:22:36;96300.06;;;19.93;79.78
29247;BME280;16272;48.188;9.964;2023-08-21T01:25:03;96297.00;;;20.03;79.16
29247;BME280;16272;48.188;9.964;2023-08-21T01:27:29;96304.31;;;20.09;78.93
29247;BME280;16272;48.188;9.964;2023-08-21T01:29:55;96301.19;;;20.06;78.88
29247;BME280;16272;48.188;9.964;2023-08-21T01:32:27;96303.38;;;19.95;79.39
29247;BME280;16272;48.188;9.964;2023-08-21T01:34:55;96302.53;;;19.88;79.39
29247;BME280;16272;48.188;9.964;2023-08-21T01:37:21;96299.78;;;19.81;79.69
29247;BME280;16272;48.188;9.964;2023-08-21T01:39:47;96298.13;;;19.80;80.33
29247;BME280;16272;48.188;9.964;2023-08-21T01:42:12;96304.75;;;19.78;79.69
29247;BME280;16272;48.188;9.964;2023-08-21T01:44:38;96311.28;;;19.69;80.26
29247;BME280;16272;48.188;9.964;2023-08-21T01:47:03;96304.16;;;19.61;80.44
29247;BME280;16272;48.188;9.964;2023-08-21T01:49:29;96310.50;;;19.75;80.33
29247;BME280;16272;48.188;9.964;2023-08-21T01:51:54;96297.81;;;19.69;80.51
29247;BME280;16272;48.188;9.964;2023-08-21T01:54:19;96301.94;;;19.64;80.73
29247;BME280;16272;48.188;9.964;2023-08-21T01:56:45;96308.78;;;19.67;80.42
29247;BME280;16272;48.188;9.964;2023-08-21T01:59:10;96303.38;;;19.67;80.92
29247;BME280;16272;48.188;9.964;2023-08-21T02:01:35;96311.22;;;19.62;80.62
29247;BME280;16272;48.188;9.964;2023-08-21T02:04:00;96310.50;;;19.75;79.95
29247;BME280;16272;48.188;9.964;2023-08-21T02:06:26;96303.81;;;19.71;79.80
29247;BME280;16272;48.188;9.964;2023-08-21T02:08:51;96313.63;;;19.50;81.33
29247;BME280;16272;48.188;9.964;2023-08-21T02:11:17;96303.78;;;19.64;80.77
29247;BME280;16272;48.188;9.964;2023-08-21T02:13:42;96304.13;;;19.54;81.32
29247;BME280;16272;48.188;9.964;2023-08-21T02:16:07;96305.78;;;19.55;81.25
29247;BME280;16272;48.188;9.964;2023-08-21T02:18:33;96306.28;;;19.65;80.08
29247;BME280;16272;48.188;9.964;2023-08-21T02:21:01;96304.03;;;19.41;82.25
29247;BME280;16272;48.188;9.964;2023-08-21T02:23:26;96302.75;;;19.37;82.65
29247;BME280;16272;48.188;9.964;2023-08-21T02:25:52;96301.66;;;19.59;81.56
29247;BME280;16272;48.188;9.964;2023-08-21T02:28:17;96311.81;;;19.57;81.08
29247;BME280;16272;48.188;9.964;2023-08-21T02:30:43;96312.00;;;19.56;80.66
29247;BME280;16272;48.188;9.964;2023-08-21T02:33:08;96309.66;;;19.46;82.47
29247;BME280;16272;48.188;9.964;2023-08-21T02:35:34;96315.28;;;19.51;81.40
29247;BME280;16272;48.188;9.964;2023-08-21T02:37:59;96308.38;;;19.42;81.84
29247;BME280;16272;48.188;9.964;2023-08-21T02:40:24;96311.09;;;19.42;81.55
29247;BME280;16272;48.188;9.964;2023-08-21T02:42:50;96310.25;;;19.41;81.75
29247;BME280;16272;48.188;9.964;2023-08-21T02:45:15;96309.03;;;19.44;81.00
29247;BME280;16272;48.188;9.964;2023-08-21T02:47:42;96309.16;;;19.36;81.18
29247;BME280;16272;48.188;9.964;2023-08-21T02:50:08;96308.38;;;19.42;80.64
29247;BME280;16272;48.188;9.964;2023-08-21T02:52:34;96307.75;;;19.40;80.74
29247;BME280;16272;48.188;9.964;2023-08-21T02:55:01;96313.47;;;19.30;81.58
29247;BME280;16272;48.188;9.964;2023-08-21T02:57:27;96305.66;;;19.35;81.21
29247;BME280;16272;48.188;9.964;2023-08-21T02:59:53;96307.44;;;19.50;80.55
29247;BME280;16272;48.188;9.964;2023-08-21T03:02:18;96309.41;;;19.41;80.23
29247;BME280;16272;48.188;9.964;2023-08-21T03:04:44;96309.44;;;19.19;80.54
29247;BME280;16272;48.188;9.964;2023-08-21T03:07:10;96309.75;;;19.09;80.67
29247;BME280;16272;48.188;9.964;2023-08-21T03:09:36;96308.94;;;19.09;80.67
29247;BME280;16272;48.188;9.964;2023-08-21T03:12:02;96312.50;;;19.16;80.37
29247;BME280;16272;48.188;9.964;2023-08-21T03:14:27;96313.75;;;19.14;81.08
29247;BME280;16272;48.188;9.964;2023-08-21T03:16:53;96318.28;;;19.13;80.52
29247;BME280;16272;48.188;9.964;2023-08-21T03:19:18;96309.81;;;19.16;81.03
29247;BME280;16272;48.188;9.964;2023-08-21T03:21:43;96317.25;;;19.14;81.06
29247;BME280;16272;48.188;9.964;2023-08-21T03:24:09;96324.34;;;19.00;80.62
29247;BME280;16272;48.188;9.964;2023-08-21T03:26:34;96317.00;;;18.87;81.39
29247;BME280;16272;48.188;9.964;2023-08-21T03:28:59;96325.47;;;18.84;82.54
29247;BME280;16272;48.188;9.964;2023-08-21T03:31:26;96319.03;;;19.07;82.72
29247;BME280;16272;48.188;9.964;2023-08-21T03:33:51;96318.28;;;19.13;81.05
29247;BME280;16272;48.188;9.964;2023-08-21T03:36:16;96323.22;;;19.09;80.86
29247;BME280;16272;48.188;9.964;2023-08-21T03:38:42;96326.03;;;19.01;80.97
29247;BME280;16272;48.188;9.964;2023-08-21T03:41:07;96322.56;;;18.86;81.57
29247;BME280;16272;48.188;9.964;2023-08-21T03:43:32;96321.91;;;18.84;81.41
29247;BME280;16272;48.188;9.964;2023-08-21T03:45:58;96316.69;;;18.82;81.64
29247;BME280;16272;48.188;9.964;2023-08-21T03:48:23;96323.91;;;18.97;80.58
29247;BME280;16272;48.188;9.964;2023-08-21T03:50:49;96322.53;;;19.01;80.09
29247;BME280;16272;48.188;9.964;2023-08-21T03:53:15;96323.84;;;18.90;80.16
29247;BME280;16272;48.188;9.964;2023-08-21T03:55:40;96335.84;;;18.87;80.42
29247;BME280;16272;48.188;9.964;2023-08-21T03:58:05;96334.09;;;18.65;80.93
29247;BME280;16272;48.188;9.964;2023-08-21T04:00:30;96337.53;;;18.59;81.46
29247;BME280;16272;48.188;9.964;2023-08-21T04:02:57;96335.22;;;18.55;82.10
29247;BME280;16272;48.188;9.964;2023-08-21T04:05:22;96340.91;;;18.82;80.26
29247;BME280;16272;48.188;9.964;2023-08-21T04:07:47;96338.63;;;18.79;81.00
29247;BME280;16272;48.188;9.964;2023-08-21T04:10:13;96335.94;;;18.79;80.42
29247;BME280;16272;48.188;9.964;2023-08-21T04:12:38;96339.00;;;18.76;81.32
29247;BME280;16272;48.188;9.964;2023-08-21T04:15:03;96339.00;;;18.76;81.21
29247;BME280;16272;48.188;9.964;2023-08-21T04:17:30;96346.13;;;18.69;81.28
29247;BME280;16272;48.188;9.964;2023-08-21T04:19:55;96339.75;;;18.70;81.35
29247;BME280;16272;48.188;9.964;2023-08-21T04:22:20;96341.31;;;18.64;81.91
29247;BME280;16272;48.188;9.964;2023-08-21T04:24:46;96339.56;;;18.71;81.27
29247;BME280;16272;48.188;9.964;2023-08-21T04:27:11;96339.13;;;18.68;81.85
29247;BME280;16272;48.188;9.964;2023-08-21T04:29:38;96345.16;;;18.55;82.19
29247;BME280;16272;48.188;9.964;2023-08-21T04:32:03;96337.19;;;18.47;83.62
29247;BME280;16272;48.188;9.964;2023-08-21T04:34:29;96335.72;;;18.44;83.44
29247;BME280;16272;48.188;9.964;2023-08-21T04:36:54;96343.13;;;18.42;83.96
29247;BME280;16272;48.188;9.964;2023-08-21T04:39:19;96338.22;;;18.46;84.31
29247;BME280;16272;48.188;9.964;2023-08-21T04:41:45;96344.38;;;18.76;82.04
29247;BME280;16272;48.188;9.964;2023-08-21T04:44:10;96350.22;;;18.80;81.58
29247;BME280;16272;48.188;9.964;2023-08-21T04:46:36;96349.94;;;18.74;82.13
29247;BME280;16272;48.188;9.964;2023-08-21T04:49:01;96349.75;;;18.91;81.97
29247;BME280;16272;48.188;9.964;2023-08-21T04:51:26;96347.56;;;19.01;80.77
29247;BME280;16272;48.188;9.964;2023-08-21T04:53:52;96352.50;;;18.98;81.96
29247;BME280;16272;48.188;9.964;2023-08-21T04:56:17;96356.41;;;18.80;82.21
29247;BME280;16272;48.188;9.964;2023-08-21T04:58:42;96359.09;;;18.95;81.27
29247;BME280;16272;48.188;9.964;2023-08-21T05:01:07;96355.84;;;19.00;81.22
29247;BME280;16272;48.188;9.964;2023-08-21T05:03:33;96369.56;;;19.05;80.91
29247;BME280;16272;48.188;9.964;2023-08-21T05:05:59;96359.97;;;19.17;81.22
29247;BME280;16272;48.188;9.964;2023-08-21T05:08:25;96359.13;;;19.38;80.66
29247;BME280;16272;48.188;9.964;2023-08-21T05:10:55;96359.31;;;19.37;81.06
29247;BME280;16272;48.188;9.964;2023-08-21T05:13:21;96358.28;;;19.38;80.92
29247;BME280;16272;48.188;9.964;2023-08-21T05:15:51;96362.41;;;19.34;81.08
29247;BME280;16272;48.188;9.964;2023-08-21T05:18:17;96363.22;;;19.34;82.27
29247;BME280;16272;48.188;9.964;2023-08-21T05:20:42;96365.34;;;19.39;81.49
29247;BME280;16272;48.188;9.964;2023-08-21T05:23:08;96363.38;;;19.54;81.28
29247;BME280;16272;48.188;9.964;2023-08-21T05:25:33;96367.75;;;19.77;79.92
29247;BME280;16272;48.188;9.964;2023-08-21T05:27:58;96364.59;;;19.73;80.78
29247;BME280;16272;48.188;9.964;2023-08-21T05:30:24;96360.59;;;19.69;81.40
29247;BME280;16272;48.188;9.964;2023-08-21T05:32:49;96361.25;;;19.93;80.84
29247;BME280;16272;48.188;9.964;2023-08-21T05:35:14;96356.44;;;19.88;82.12
29247;BME280;16272;48.188;9.964;2023-08-21T05:37:39;96369.41;;;20.06;81.44
29247;BME280;16272;48.188;9.964;2023-08-21T05:40:05;96367.38;;;20.15;81.21
29247;BME280;16272;48.188;9.964;2023-08-21T05:42:31;96369.25;;;20.14;81.27
29247;BME280;16272;48.188;9.964;2023-08-21T05:44:56;96364.72;;;20.22;82.36
29247;BME280;16272;48.188;9.964;2023-08-21T05:47:21;96362.16;;;20.07;81.93
29247;BME280;16272;48.188;9.964;2023-08-21T05:49:48;96361.00;;;20.23;81.81
29247;BME280;16272;48.188;9.964;2023-08-21T05:52:14;96364.53;;;20.58;80.79
29247;BME280;16272;48.188;9.964;2023-08-21T05:54:39;96365.28;;;20.45;80.80
29247;BME280;16272;48.188;9.964;2023-08-21T05:57:04;96360.25;;;20.35;81.09
29247;BME280;16272;48.188;9.964;2023-08-21T05:59:31;96362.84;;;20.57;81.00
29247;BME280;16272;48.188;9.964;2023-08-21T06:01:57;96367.78;;;20.95;79.95
29247;BME280;16272;48.188;9.964;2023-08-21T06:04:22;96365.97;;;21.02;78.67
29247;BME280;16272;48.188;9.964;2023-08-21T06:06:47;96369.53;;;21.23;77.68
29247;BME280;16272;48.188;9.964;2023-08-21T06:09:13;96369.94;;;21.33;77.44
29247;BME280;16272;48.188;9.964;2023-08-21T06:11:38;96361.88;;;21.40;77.25
29247;BME280;16272;48.188;9.964;2023-08-21T06:14:04;96373.09;;;21.43;77.85
29247;BME280;16272;48.188;9.964;2023-08-21T06:16:29;96374.38;;;21.54;77.92
29247;BME280;16272;48.188;9.964;2023-08-21T06:18:54;96372.94;;;21.78;76.40
29247;BME280;16272;48.188;9.964;2023-08-21T06:21:20;96367.13;;;21.81;77.03
29247;BME280;16272;48.188;9.964;2023-08-21T06:23:45;96372.94;;;21.92;76.70
29247;BME280;16272;48.188;9.964;2023-08-21T06:26:10;96375.59;;;22.25;75.22
29247;BME280;16272;48.188;9.964;2023-08-21T06:28:35;96373.72;;;22.39;75.33
29247;BME280;16272;48.188;9.964;2023-08-21T06:31:01;96380.59;;;22.21;77.12
29247;BME280;16272;48.188;9.964;2023-08-21T06:33:33;96382.28;;;22.29;77.58
29247;BME280;16272;48.188;9.964;2023-08-21T06:35:58;96382.88;;;22.31;79.46
29247;BME280;16272;48.188;9.964;2023-08-21T06:38:23;96382.63;;;22.60;78.82
29247;BME280;16272;48.188;9.964;2023-08-21T06:40:49;96380.06;;;22.71;78.09
29247;BME280;16272;48.188;9.964;2023-08-21T06:43:14;96377.56;;;22.76;77.60
29247;BME280;16272;48.188;9.964;2023-08-21T06:45:40;96377.47;;;22.97;77.93
29247;BME280;16272;48.188;9.964;2023-08-21T06:48:06;96379.13;;;22.98;77.94
29247;BME280;16272;48.188;9.964;2023-08-21T06:50:31;96385.69;;;23.22;77.42
29247;BME280;16272;48.188;9.964;2023-08-21T06:52:57;96385.13;;;23.13;77.46
29247;BME280;16272;48.188;9.964;2023-08-21T06:55:22;96390.34;;;23.46;77.13
29247;BME280;16272;48.188;9.964;2023-08-21T06:57:47;96392.53;;;23.63;76.01
29247;BME280;16272;48.188;9.964;2023-08-21T07:00:13;96392.16;;;23.53;76.58
29247;BME280;16272;48.188;9.964;2023-08-21T07:02:38;96387.38;;;23.87;75.02
29247;BME280;16272;48.188;9.964;2023-08-21T07:05:04;96383.47;;;24.26;74.67
29247;BME280;16272;48.188;9.964;2023-08-21T07:07:29;96381.31;;;24.10;75.06
29247;BME280;16272;48.188;9.964;2023-08-21T07:09:54;96389.09;;;24.25;75.97
29247;BME280;16272;48.188;9.964;2023-08-21T07:12:21;96381.03;;;24.36;76.05
29247;BME280;16272;48.188;9.964;2023-08-21T07:14:47;96383.91;;;24.23;73.70
29247;BME280;16272;48.188;9.964;2023-08-21T07:17:12;96384.69;;;24.49;74.47
29247;BME280;16272;48.188;9.964;2023-08-21T07:19:37;96382.59;;;24.69;74.36
29247;BME280;16272;48.188;9.964;2023-08-21T07:22:03;96389.09;;;24.87;74.86
29247;BME280;16272;48.188;9.964;2023-08-21T07:24:28;96381.97;;;25.04;74.76
29247;BME280;16272;48.188;9.964;2023-08-21T07:26:53;96384.75;;;25.16;71.72
29247;BME280;16272;48.188;9.964;2023-08-21T07:29:18;96385.56;;;25.17;69.00
29247;BME280;16272;48.188;9.964;2023-08-21T07:31:44;96384.34;;;25.31;67.28
29247;BME280;16272;48.188;9.964;2023-08-21T07:34:09;96380.88;;;25.24;67.60
29247;BME280;16272;48.188;9.964;2023-08-21T07:36:34;96375.41;;;25.42;67.13
29247;BME280;16272;48.188;9.964;2023-08-21T07:39:00;96385.50;;;25.54;66.94
29247;BME280;16272;48.188;9.964;2023-08-21T07:41:25;96389.06;;;25.66;66.09
29247;BME280;16272;48.188;9.964;2023-08-21T07:43:50;96385.69;;;25.22;69.03
29247;BME280;16272;48.188;9.964;2023-08-21T07:46:15;96391.38;;;25.39;69.01
29247;BME280;16272;48.188;9.964;2023-08-21T07:48:44;96394.03;;;25.69;67.71
29247;BME280;16272;48.188;9.964;2023-08-21T07:51:09;96395.75;;;25.94;65.72
29247;BME280;16272;48.188;9.964;2023-08-21T07:53:35;96393.97;;;25.88;64.50
29247;BME280;16272;48.188;9.964;2023-08-21T07:56:01;96397.88;;;25.92;64.63
29247;BME280;16272;48.188;9.964;2023-08-21T07:58:27;96392.25;;;26.05;64.90
29247;BME280;16272;48.188;9.964;2023-08-21T08:00:52;96386.16;;;25.91;65.65
29247;BME280;16272;48.188;9.964;2023-08-21T08:03:17;96396.41;;;26.08;66.59
29247;BME280;16272;48.188;9.964;2023-08-21T08:05:43;96392.75;;;26.14;68.25
29247;BME280;16272;48.188;9.964;2023-08-21T08:08:09;96393.91;;;26.41;64.15
29247;BME280;16272;48.188;9.964;2023-08-21T08:10:41;96388.34;;;26.36;63.99
29247;BME280;16272;48.188;9.964;2023-08-21T08:13:07;96392.59;;;26.56;63.93
29247;BME280;16272;48.188;9.964;2023-08-21T08:15:33;96389.41;;;26.47;62.98
29247;BME280;16272;48.188;9.964;2023-08-21T08:17:59;96397.66;;;26.76;62.73
29247;BME280;16272;48.188;9.964;2023-08-21T08:20:25;96388.22;;;26.67;62.79
29247;BME280;16272;48.188;9.964;2023-08-21T08:22:50;96390.94;;;26.78;63.80
29247;BME280;16272;48.188;9.964;2023-08-21T08:25:16;96390.19;;;26.95;63.88
29247;BME280;16272;48.188;9.964;2023-08-21T08:27:42;96398.59;;;26.93;63.47
29247;BME280;16272;48.188;9.964;2023-08-21T08:30:08;96389.34;;;26.94;64.16
29247;BME280;16272;48.188;9.964;2023-08-21T08:32:34;96384.50;;;28.34;65.98
29247;BME280;16272;48.188;9.964;2023-08-21T08:34:59;96393.69;;;28.11;60.18
29247;BME280;16272;48.188;9.964;2023-08-21T08:37:25;96393.72;;;27.82;61.14
29247;BME280;16272;48.188;9.964;2023-08-21T08:39:50;96398.34;;;28.66;58.32
29247;BME280;16272;48.188;9.964;2023-08-21T08:42:15;96392.75;;;28.22;59.14
29247;BME280;16272;48.188;9.964;2023-08-21T08:44:42;96393.41;;;28.46;58.13
29247;BME280;16272;48.188;9.964;2023-08-21T08:47:09;96383.84;;;28.10;57.87
29247;BME280;16272;48.188;9.964;2023-08-21T08:49:35;96384.19;;;28.91;56.31
29247;BME280;16272;48.188;9.964;2023-08-21T08:52:01;96382.41;;;29.51;58.22
29247;BME280;16272;48.188;9.964;2023-08-21T08:54:26;96384.78;;;29.65;58.19
29247;BME280;16272;48.188;9.964;2023-08-21T08:56:53;96380.50;;;30.06;58.51
29247;BME280;16272;48.188;9.964;2023-08-21T08:59:18;96386.25;;;29.50;53.80
29247;BME280;16272;48.188;9.964;2023-08-21T09:01:43;96384.59;;;28.78;53.89
29247;BME280;16272;48.188;9.964;2023-08-21T09:04:09;96386.88;;;29.58;57.45
29247;BME280;16272;48.188;9.964;2023-08-21T09:06:35;96377.25;;;30.47;55.20
29247;BME280;16272;48.188;9.964;2023-08-21T09:09:01;96383.56;;;29.56;52.94
29247;BME280;16272;48.188;9.964;2023-08-21T09:11:26;96385.50;;;30.15;53.48
29247;BME280;16272;48.188;9.964;2023-08-21T09:13:52;96374.56;;;30.57;53.79
29247;BME280;16272;48.188;9.964;2023-08-21T09:16:19;96374.28;;;31.17;51.27
29247;BME280;16272;48.188;9.964;2023-08-21T09:18:52;96382.88;;;31.31;52.60
29247;BME280;16272;48.188;9.964;2023-08-21T09:21:19;96378.72;;;30.28;48.87
29247;BME280;16272;48.188;9.964;2023-08-21T09:23:45;96378.69;;;30.22;51.37
29247;BME280;16272;48.188;9.964;2023-08-21T09:26:18;96385.88;;;30.29;49.95
29247;BME280;16272;48.188;9.964;2023-08-21T09:28:44;96377.03;;;31.12;51.97
29247;BME280;16272;48.188;9.964;2023-08-21T09:31:10;96382.13;;;30.88;46.78
29247;BME280;16272;48.188;9.964;2023-08-21T09:33:35;96382.47;;;30.96;45.25
29247;BME280;16272;48.188;9.964;2023-08-21T09:36:03;96382.25;;;30.60;47.30
29247;BME280;16272;48.188;9.964;2023-08-21T09:38:30;96372.00;;;30.08;48.17
29247;BME280;16272;48.188;9.964;2023-08-21T09:40:56;96382.59;;;30.32;45.10
29247;BME280;16272;48.188;9.964;2023-08-21T09:43:22;96376.84;;;31.49;46.31
29247;BME280;16272;48.188;9.964;2023-08-21T09:45:49;96369.94;;;31.21;44.42
29247;BME280;16272;48.188;9.964;2023-08-21T09:48:17;96372.16;;;31.40;42.31
29247;BME280;16272;48.188;9.964;2023-08-21T09:50:43;96369.13;;;31.31;43.15
29247;BME280;16272;48.188;9.964;2023-08-21T09:53:09;96363.47;;;31.74;42.43
29247;BME280;16272;48.188;9.964;2023-08-21T09:55:35;96367.22;;;31.37;44.91
29247;BME280;16272;48.188;9.964;2023-08-21T09:58:02;96362.94;;;31.92;43.31
29247;BME280;16272;48.188;9.964;2023-08-21T10:00:32;96363.88;;;31.14;44.93
29247;BME280;16272;48.188;9.964;2023-08-21T10:03:02;96363.78;;;31.93;44.85
29247;BME280;16272;48.188;9.964;2023-08-21T10:05:30;96360.13;;;31.46;44.03
29247;BME280;16272;48.188;9.964;2023-08-21T10:07:59;96356.34;;;32.09;42.91
29247;BME280;16272;48.188;9.964;2023-08-21T10:10:26;96339.50;;;32.72;45.31
29247;BME280;16272;48.188;9.964;2023-08-21T10:12:51;96347.47;;;32.63;43.90
29247;BME280;16272;48.188;9.964;2023-08-21T10:15:17;96342.94;;;33.03;44.99
29247;BME280;16272;48.188;9.964;2023-08-21T10:17:43;96339.25;;;33.68;41.86
29247;BME280;16272;48.188;9.964;2023-08-21T10:20:09;96355.25;;;32.15;44.00
29247;BME280;16272;48.188;9.964;2023-08-21T10:22:49;96339.03;;;33.14;42.47
29247;BME280;16272;48.188;9.964;2023-08-21T10:25:22;96341.44;;;32.56;46.61
29247;BME280;16272;48.188;9.964;2023-08-21T10:27:55;96335.34;;;32.74;40.64
29247;BME280;16272;48.188;9.964;2023-08-21T10:30:30;96340.84;;;32.85;41.54
29247;BME280;16272;48.188;9.964;2023-08-21T10:32:58;96329.25;;;32.93;42.13
29247;BME280;16272;48.188;9.964;2023-08-21T10:35:31;96338.09;;;32.74;40.09
29247;BME280;16272;48.188;9.964;2023-08-21T10:38:16;96340.78;;;32.95;41.52
29247;BME280;16272;48.188;9.964;2023-08-21T10:41:05;96336.63;;;33.92;42.32
29247;BME280;16272;48.188;9.964;2023-08-21T10:46:03;96334.88;;;33.67;43.24
29247;BME280;16272;48.188;9.964;2023-08-21T10:48:28;96340.34;;;33.77;42.04
29247;BME280;16272;48.188;9.964;2023-08-21T10:50:54;96335.25;;;33.95;39.68
29247;BME280;16272;48.188;9.964;2023-08-21T10:53:20;96336.16;;;33.85;42.31
29247;BME280;16272;48.188;9.964;2023-08-21T10:55:53;96336.69;;;34.21;39.24
29247;BME280;16272;48.188;9.964;2023-08-21T10:58:18;96330.91;;;34.47;41.52
29247;BME280;16272;48.188;9.964;2023-08-21T11:00:43;96334.25;;;34.44;35.91
29247;BME280;16272;48.188;9.964;2023-08-21T11:03:09;96336.81;;;34.06;39.38
29247;BME280;16272;48.188;9.964;2023-08-21T11:05:35;96327.09;;;34.43;39.95
29247;BME280;16272;48.188;9.964;2023-08-21T11:08:00;96333.47;;;34.38;39.16
29247;BME280;16272;48.188;9.964;2023-08-21T11:10:29;96331.66;;;33.94;38.86
29247;BME280;16272;48.188;9.964;2023-08-21T11:12:56;96336.28;;;34.33;38.04
29247;BME280;16272;48.188;9.964;2023-08-21T11:15:24;96329.94;;;33.64;39.79
29247;BME280;16272;48.188;9.964;2023-08-21T11:18:00;96333.06;;;33.52;42.24
29247;BME280;16272;48.188;9.964;2023-08-21T11:20:33;96336.25;;;34.04;40.00
29247;BME280;16272;48.188;9.964;2023-08-21T11:23:01;96338.44;;;34.07;44.05
29247;BME280;16272;48.188;9.964;2023-08-21T11:25:32;96329.25;;;34.17;41.29
29247;BME280;16272;48.188;9.964;2023-08-21T11:27:58;96324.59;;;34.12;37.83
29247;BME280;16272;48.188;9.964;2023-08-21T11:30:23;96330.63;;;34.19;36.54
29247;BME280;16272;48.188;9.964;2023-08-21T11:32:49;96324.50;;;34.52;40.99
29247;BME280;16272;48.188;9.964;2023-08-21T11:35:15;96324.56;;;34.22;37.32
29247;BME280;16272;48.188;9.964;2023-08-21T11:37:44;96327.44;;;34.60;39.03
29247;BME280;16272;48.188;9.964;2023-08-21T11:40:13;96321.28;;;34.69;40.29
29247;BME280;16272;48.188;9.964;2023-08-21T11:42:39;96313.06;;;34.64;41.64
29247;BME280;16272;48.188;9.964;2023-08-21T11:45:04;96318.50;;;34.74;36.84
29247;BME280;16272;48.188;9.964;2023-08-21T11:47:32;96317.38;;;34.75;36.62
29247;BME280;16272;48.188;9.964;2023-08-21T11:50:05;96306.69;;;34.68;37.45
29247;BME280;16272;48.188;9.964;2023-08-21T11:52:31;96311.16;;;34.88;38.64
29247;BME280;16272;48.188;9.964;2023-08-21T11:54:57;96308.94;;;35.09;38.17
29247;BME280;16272;48.188;9.964;2023-08-21T11:57:22;96307.22;;;35.13;40.18
29247;BME280;16272;48.188;9.964;2023-08-21T11:59:52;96305.28;;;35.14;36.88
29247;BME280;16272;48.188;9.964;2023-08-21T12:02:21;96310.78;;;35.14;39.11
29247;BME280;16272;48.188;9.964;2023-08-21T12:04:54;96304.47;;;34.94;37.56
29247;BME280;16272;48.188;9.964;2023-08-21T12:07:20;96305.31;;;35.33;38.31
29247;BME280;16272;48.188;9.964;2023-08-21T12:09:49;96304.69;;;35.17;36.54
29247;BME280;16272;48.188;9.964;2023-08-21T12:12:15;96300.69;;;34.61;39.22
29247;BME280;16272;48.188;9.964;2023-08-21T12:14:40;96294.81;;;34.68;41.67
29247;BME280;16272;48.188;9.964;2023-08-21T12:17:06;96291.47;;;34.22;38.90
29247;BME280;16272;48.188;9.964;2023-08-21T12:19:32;96296.03;;;35.05;37.39
29247;BME280;16272;48.188;9.964;2023-08-21T12:21:57;96288.53;;;34.38;36.20
29247;BME280;16272;48.188;9.964;2023-08-21T12:24:24;96284.56;;;34.49;43.35
29247;BME280;16272;48.188;9.964;2023-08-21T12:26:49;96285.94;;;34.95;34.80
29247;BME280;16272;48.188;9.964;2023-08-21T12:29:14;96288.03;;;35.03;39.39
29247;BME280;16272;48.188;9.964;2023-08-21T12:31:39;96280.69;;;35.37;35.79
29247;BME280;16272;48.188;9.964;2023-08-21T12:34:05;96281.47;;;34.80;41.95
29247;BME280;16272;48.188;9.964;2023-08-21T12:36:30;96277.94;;;34.74;42.42
29247;BME280;16272;48.188;9.964;2023-08-21T12:38:55;96277.56;;;34.33;40.92
29247;BME280;16272;48.188;9.964;2023-08-21T12:41:21;96277.22;;;34.39;40.42
29247;BME280;16272;48.188;9.964;2023-08-21T12:43:46;96276.16;;;33.77;40.82
29247;BME280;16272;48.188;9.964;2023-08-21T12:46:11;96282.84;;;33.65;39.55
29247;BME280;16272;48.188;9.964;2023-08-21T12:48:37;96278.09;;;34.05;40.38
29247;BME280;16272;48.188;9.964;2023-08-21T12:51:02;96273.97;;;34.56;43.72
29247;BME280;16272;48.188;9.964;2023-08-21T12:53:28;96271.28;;;34.51;40.45
29247;BME280;16272;48.188;9.964;2023-08-21T12:55:53;96270.56;;;34.65;41.33
29247;BME280;16272;48.188;9.964;2023-08-21T12:58:18;96264.81;;;34.61;40.84
29247;BME280;16272;48.188;9.964;2023-08-21T13:00:44;96261.72;;;34.68;40.04
29247;BME280;16272;48.188;9.964;2023-08-21T13:03:09;96262.72;;;34.53;41.14